createdAt,value
2019-05-10T00:00:24.046Z,995.55
2019-05-10T00:01:45.579Z,995.48
2019-05-10T00:02:25.959Z,995.54
2019-05-10T00:03:06.355Z,995.51
2019-05-10T00:03:47.111Z,995.54
2019-05-10T00:04:27.552Z,995.5
2019-05-10T00:05:08.026Z,995.54
2019-05-10T00:05:48.357Z,995.55
2019-05-10T00:06:30.713Z,995.53
2019-05-10T00:07:11.030Z,995.51
2019-05-10T00:07:53.126Z,995.51
2019-05-10T00:08:35.901Z,995.52
2019-05-10T00:09:19.139Z,995.52
2019-05-10T00:10:01.411Z,995.52
2019-05-10T00:10:42.315Z,995.54
2019-05-10T00:11:22.650Z,995.53
2019-05-10T00:12:04.034Z,995.55
2019-05-10T00:12:49.089Z,995.56
2019-05-10T00:13:29.923Z,995.57
2019-05-10T00:14:10.118Z,995.58
2019-05-10T00:14:50.486Z,995.57
2019-05-10T00:15:31.539Z,995.54
2019-05-10T00:16:12.977Z,995.56
2019-05-10T00:16:57.220Z,995.57
2019-05-10T00:17:43.796Z,995.56
2019-05-10T00:18:22.213Z,995.56
2019-05-10T00:19:04.639Z,995.55
2019-05-10T00:19:50.238Z,995.57
2019-05-10T00:20:38.932Z,995.59
2019-05-10T00:21:21.672Z,995.6
2019-05-10T00:23:26.228Z,995.59
2019-05-10T00:24:06.720Z,995.6
2019-05-10T00:25:01.931Z,995.61
2019-05-10T00:25:27.580Z,995.62
2019-05-10T00:26:14.459Z,995.62
2019-05-10T00:26:56.709Z,995.6
2019-05-10T00:27:37.244Z,995.59
2019-05-10T00:28:17.866Z,995.56
2019-05-10T00:28:58.293Z,995.57
2019-05-10T00:29:38.992Z,995.6
2019-05-10T00:30:19.417Z,995.55
2019-05-10T00:30:59.786Z,995.54
2019-05-10T00:31:40.403Z,995.55
2019-05-10T00:32:20.524Z,995.56
2019-05-10T00:33:01.101Z,995.53
2019-05-10T00:33:43.134Z,995.56
2019-05-10T00:34:23.673Z,995.56
2019-05-10T00:35:03.960Z,995.54
2019-05-10T00:35:46.611Z,995.57
2019-05-10T00:36:27.081Z,995.56
2019-05-10T00:42:36.594Z,995.59
2019-05-10T00:43:18.003Z,995.56
2019-05-10T00:43:58.188Z,995.56
2019-05-10T00:44:41.593Z,995.56
2019-05-10T00:45:21.991Z,995.58
2019-05-10T00:46:03.698Z,995.6
2019-05-10T00:46:45.859Z,995.59
2019-05-10T00:47:26.271Z,995.65
2019-05-10T00:48:08.404Z,995.67
2019-05-10T00:50:11.963Z,995.66
2019-05-10T00:53:25.239Z,995.7
2019-05-10T00:54:21.877Z,995.71
2019-05-10T00:56:48.178Z,995.7
2019-05-10T00:57:30.065Z,995.72
2019-05-10T00:58:11.454Z,995.72
2019-05-10T00:58:53.910Z,995.74
2019-05-10T00:59:34.252Z,995.75
2019-05-10T01:00:14.946Z,995.78
2019-05-10T01:00:55.674Z,995.74
2019-05-10T01:01:39.498Z,995.8
2019-05-10T01:02:19.943Z,995.75
2019-05-10T01:03:00.311Z,995.75
2019-05-10T01:03:40.932Z,995.76
2019-05-10T01:04:21.220Z,995.75
2019-05-10T01:06:56.306Z,995.72
2019-05-10T01:07:44.632Z,995.69
2019-05-10T01:09:53.808Z,995.76
2019-05-10T01:10:36.118Z,995.8
2019-05-10T01:11:17.105Z,995.8
2019-05-10T01:11:56.872Z,995.84
2019-05-10T01:12:37.447Z,995.81
2019-05-10T01:13:17.881Z,995.76
2019-05-10T01:13:58.244Z,995.81
2019-05-10T01:14:38.603Z,995.78
2019-05-10T01:15:19.006Z,995.77
2019-05-10T01:15:59.388Z,995.84
2019-05-10T01:16:39.845Z,995.74
2019-05-10T01:17:20.126Z,995.8
2019-05-10T01:18:00.507Z,995.79
2019-05-10T01:18:40.900Z,995.81
2019-05-10T01:19:21.452Z,995.79
2019-05-10T01:20:02.063Z,995.8
2019-05-10T01:20:42.181Z,995.8
2019-05-10T01:21:22.542Z,995.83
2019-05-10T01:22:02.922Z,995.83
2019-05-10T01:22:43.320Z,995.83
2019-05-10T01:23:23.708Z,995.84
2019-05-10T01:24:04.131Z,995.83
2019-05-10T01:24:44.499Z,995.85
2019-05-10T01:25:34.336Z,995.87
2019-05-10T01:26:05.263Z,995.86
2019-05-10T01:26:45.606Z,995.92
2019-05-10T01:27:26.060Z,995.91
2019-05-10T01:28:06.473Z,995.91
2019-05-10T01:28:46.808Z,995.91
2019-05-10T01:29:27.195Z,995.92
2019-05-10T01:30:07.646Z,995.92
2019-05-10T01:30:51.879Z,995.94
2019-05-10T01:31:31.983Z,995.95
2019-05-10T01:32:12.379Z,995.95
2019-05-10T01:32:52.746Z,995.94
2019-05-10T01:33:33.130Z,995.97
2019-05-10T01:34:13.578Z,995.95
2019-05-10T01:34:53.942Z,995.96
2019-05-10T01:35:34.304Z,995.96
2019-05-10T01:36:14.701Z,995.98
2019-05-10T01:36:55.462Z,995.97
2019-05-10T01:37:35.803Z,995.98
2019-05-10T01:38:16.150Z,995.95
2019-05-10T01:38:56.658Z,995.96
2019-05-10T01:39:37.091Z,995.97
2019-05-10T01:40:17.439Z,995.94
2019-05-10T01:40:58.487Z,995.94
2019-05-10T01:41:40.193Z,995.97
2019-05-10T01:42:20.720Z,995.94
2019-05-10T01:44:49.836Z,995.94
2019-05-10T01:45:29.871Z,995.95
2019-05-10T01:46:10.249Z,995.94
2019-05-10T01:46:50.659Z,995.99
2019-05-10T01:47:32.575Z,995.97
2019-05-10T01:48:13.004Z,995.98
2019-05-10T01:48:53.438Z,996
2019-05-10T01:49:34.559Z,995.98
2019-05-10T01:50:14.969Z,996.01
2019-05-10T01:50:55.339Z,995.99
2019-05-10T01:51:35.731Z,996.06
2019-05-10T01:52:17.508Z,996.06
2019-05-10T01:52:57.959Z,996.04
2019-05-10T01:53:40.590Z,996.04
2019-05-10T01:54:20.789Z,996.05
2019-05-10T01:55:01.274Z,996.03
2019-05-10T01:55:51.218Z,996.04
2019-05-10T01:56:22.024Z,996.03
2019-05-10T01:57:02.446Z,996.08
2019-05-10T01:57:42.850Z,996.06
2019-05-10T01:58:23.297Z,996.06
2019-05-10T01:59:03.612Z,996.03
2019-05-10T02:00:24.431Z,996.11
2019-05-10T02:01:04.765Z,996.11
2019-05-10T02:01:45.196Z,996.14
2019-05-10T02:02:26.285Z,996.15
2019-05-10T02:03:06.651Z,996.14
2019-05-10T02:03:47.088Z,996.14
2019-05-10T02:04:27.364Z,996.15
2019-05-10T02:05:08.025Z,996.13
2019-05-10T02:05:49.252Z,996.18
2019-05-10T02:06:31.424Z,996.19
2019-05-10T02:07:11.812Z,996.2
2019-05-10T02:07:52.296Z,996.19
2019-05-10T02:08:32.696Z,996.24
2019-05-10T02:09:13.073Z,996.19
2019-05-10T02:10:34.344Z,996.19
2019-05-10T02:11:14.574Z,996.17
2019-05-10T02:11:54.945Z,996.2
2019-05-10T02:12:36.357Z,996.13
2019-05-10T02:13:16.790Z,996.18
2019-05-10T02:13:57.216Z,996.24
2019-05-10T02:14:37.587Z,996.18
2019-05-10T02:15:17.985Z,996.15
2019-05-10T02:15:58.344Z,996.2
2019-05-10T02:16:38.741Z,996.19
2019-05-10T02:17:19.219Z,996.18
2019-05-10T02:18:01.847Z,996.17
2019-05-10T02:18:42.494Z,996.22
2019-05-10T02:19:22.848Z,996.22
2019-05-10T02:20:43.719Z,996.21
2019-05-10T02:21:24.339Z,996.2
2019-05-10T02:22:04.603Z,996.18
2019-05-10T02:22:45.045Z,996.19
2019-05-10T02:23:26.506Z,996.21
2019-05-10T02:24:07.031Z,996.18
2019-05-10T02:24:47.926Z,996.2
2019-05-10T02:25:29.580Z,996.23
2019-05-10T02:26:10.226Z,996.21
2019-05-10T02:26:50.376Z,996.21
2019-05-10T02:28:11.118Z,996.25
2019-05-10T02:28:51.519Z,996.2
2019-05-10T02:29:31.949Z,996.19
2019-05-10T02:30:12.332Z,996.21
2019-05-10T02:30:53.061Z,996.23
2019-05-10T02:31:33.445Z,996.22
2019-05-10T02:32:14.283Z,996.22
2019-05-10T02:32:54.384Z,996.24
2019-05-10T02:33:34.815Z,996.21
2019-05-10T02:34:15.410Z,996.22
2019-05-10T02:34:55.710Z,996.23
2019-05-10T02:35:36.494Z,996.2
2019-05-10T02:36:16.498Z,996.2
2019-05-10T02:36:56.908Z,996.18
2019-05-10T02:37:37.436Z,996.13
2019-05-10T02:38:18.382Z,996.18
2019-05-10T02:38:59.277Z,996.23
2019-05-10T02:39:40.530Z,996.16
2019-05-10T02:40:20.900Z,996.2
2019-05-10T02:41:01.286Z,996.18
2019-05-10T02:41:43.557Z,996.17
2019-05-10T02:42:24.821Z,996.2
2019-05-10T02:43:05.230Z,996.23
2019-05-10T02:43:45.680Z,996.18
2019-05-10T02:44:26.124Z,996.2
2019-05-10T02:45:06.781Z,996.26
2019-05-10T02:45:47.185Z,996.23
2019-05-10T02:46:27.584Z,996.25
2019-05-10T02:47:08.399Z,996.27
2019-05-10T02:47:48.677Z,996.23
2019-05-10T02:48:33.606Z,996.24
2019-05-10T02:49:13.999Z,996.22
2019-05-10T02:49:58.747Z,996.22
2019-05-10T02:50:37.862Z,996.23
2019-05-10T02:51:19.744Z,996.2
2019-05-10T02:52:00.176Z,996.22
2019-05-10T02:52:42.376Z,996.24
2019-05-10T02:53:22.730Z,996.21
2019-05-10T02:54:03.124Z,996.21
2019-05-10T02:54:43.710Z,996.23
2019-05-10T02:55:24.122Z,996.24
2019-05-10T02:56:04.821Z,996.27
2019-05-10T02:56:45.242Z,996.23
2019-05-10T02:57:25.647Z,996.27
2019-05-10T02:58:07.325Z,996.29
2019-05-10T02:58:47.935Z,996.28
2019-05-10T02:59:28.278Z,996.27
2019-05-10T03:00:10.201Z,996.26
2019-05-10T03:00:51.101Z,996.27
2019-05-10T03:01:32.046Z,996.29
2019-05-10T03:02:12.444Z,996.3
2019-05-10T03:02:52.795Z,996.35
2019-05-10T03:03:33.270Z,996.3
2019-05-10T03:04:13.624Z,996.35
2019-05-10T03:04:53.966Z,996.32
2019-05-10T03:05:34.414Z,996.3
2019-05-10T03:06:14.813Z,996.38
2019-05-10T03:06:55.166Z,996.36
2019-05-10T03:07:35.537Z,996.38
2019-05-10T03:08:15.956Z,996.41
2019-05-10T03:08:56.691Z,996.35
2019-05-10T03:09:37.838Z,996.39
2019-05-10T03:10:19.918Z,996.41
2019-05-10T03:11:00.299Z,996.42
2019-05-10T03:11:40.740Z,996.43
2019-05-10T03:12:22.848Z,996.41
2019-05-10T03:13:03.194Z,996.46
2019-05-10T03:13:43.854Z,996.46
2019-05-10T03:14:24.455Z,996.39
2019-05-10T03:15:04.866Z,996.45
2019-05-10T03:15:45.215Z,996.4
2019-05-10T03:16:27.781Z,996.45
2019-05-10T03:17:08.430Z,996.42
2019-05-10T03:18:29.302Z,996.42
2019-05-10T03:19:09.697Z,996.45
2019-05-10T03:19:50.181Z,996.4
2019-05-10T03:20:31.497Z,996.5
2019-05-10T03:21:12.029Z,996.44
2019-05-10T03:21:52.383Z,996.51
2019-05-10T03:22:32.805Z,996.47
2019-05-10T03:23:13.149Z,996.51
2019-05-10T03:23:53.705Z,996.55
2019-05-10T03:24:33.977Z,996.53
2019-05-10T03:25:56.690Z,996.58
2019-05-10T03:26:50.036Z,996.53
2019-05-10T03:27:17.440Z,996.56
2019-05-10T03:27:57.871Z,996.59
2019-05-10T03:28:38.417Z,996.53
2019-05-10T03:29:19.704Z,996.6
2019-05-10T03:30:00.966Z,996.52
2019-05-10T03:30:41.361Z,996.6
2019-05-10T03:31:21.847Z,996.6
2019-05-10T03:32:02.210Z,996.63
2019-05-10T03:32:42.655Z,996.63
2019-05-10T03:33:23.051Z,996.61
2019-05-10T03:34:03.401Z,996.62
2019-05-10T03:34:44.094Z,996.63
2019-05-10T03:35:25.770Z,996.64
2019-05-10T03:36:07.982Z,996.63
2019-05-10T03:36:49.008Z,996.68
2019-05-10T03:37:29.413Z,996.64
2019-05-10T03:38:11.168Z,996.67
2019-05-10T03:38:58.178Z,996.67
2019-05-10T03:39:43.542Z,996.72
2019-05-10T03:40:38.287Z,996.68
2019-05-10T03:41:22.010Z,996.74
2019-05-10T03:42:09.652Z,996.7
2019-05-10T03:42:58.082Z,996.69
2019-05-10T03:43:44.966Z,996.69
2019-05-10T03:44:27.262Z,996.7
2019-05-10T03:45:08.305Z,996.73
2019-05-10T03:45:49.870Z,996.74
2019-05-10T03:48:15.352Z,996.71
2019-05-10T03:48:59.919Z,996.74
2019-05-10T03:51:56.920Z,996.8
2019-05-10T03:52:39.153Z,996.79
2019-05-10T03:53:22.238Z,996.8
2019-05-10T03:56:42.032Z,996.83
2019-05-10T03:57:30.916Z,996.86
2019-05-10T04:01:29.453Z,996.85
2019-05-10T04:02:12.408Z,996.85
2019-05-10T04:03:01.276Z,996.85
2019-05-10T04:03:50.045Z,996.87
2019-05-10T04:04:32.397Z,996.91
2019-05-10T04:05:12.768Z,996.9
2019-05-10T04:05:53.202Z,996.85
2019-05-10T04:06:35.203Z,996.83
2019-05-10T04:07:17.160Z,996.82
2019-05-10T04:07:57.113Z,996.86
2019-05-10T04:08:37.517Z,996.87
2019-05-10T04:09:17.858Z,996.87
2019-05-10T04:09:58.263Z,996.89
2019-05-10T04:10:38.644Z,996.86
2019-05-10T04:11:20.513Z,996.88
2019-05-10T04:12:00.960Z,996.89
2019-05-10T04:12:42.323Z,996.95
2019-05-10T04:13:22.543Z,996.9
2019-05-10T04:14:03.091Z,996.93
2019-05-10T04:14:44.538Z,996.93
2019-05-10T04:15:25.822Z,996.96
2019-05-10T04:16:06.496Z,996.91
2019-05-10T04:16:48.339Z,996.95
2019-05-10T04:19:37.753Z,996.99
2019-05-10T04:20:18.378Z,997.01
2019-05-10T04:20:59.578Z,996.99
2019-05-10T04:21:41.759Z,997.04
2019-05-10T04:22:24.678Z,997.02
2019-05-10T04:23:06.489Z,997.04
2019-05-10T04:23:47.527Z,997
2019-05-10T04:24:29.715Z,997.03
2019-05-10T04:25:10.167Z,997.06
2019-05-10T04:25:52.007Z,997.1
2019-05-10T04:26:32.385Z,997.06
2019-05-10T04:27:30.500Z,997.04
2019-05-10T05:10:15.235Z,997.48
2019-05-10T05:10:56.609Z,997.41
2019-05-10T05:11:39.357Z,997.48
2019-05-10T05:12:21.479Z,997.5
2019-05-10T05:13:06.121Z,997.52
2019-05-10T05:13:46.631Z,997.53
2019-05-10T05:14:27.012Z,997.53
2019-05-10T05:15:07.478Z,997.57
2019-05-10T05:15:47.857Z,997.56
2019-05-10T05:16:28.761Z,997.57
2019-05-10T05:17:09.984Z,997.59
2019-05-10T05:17:53.895Z,997.62
2019-05-10T05:18:34.342Z,997.6
2019-05-10T05:19:14.897Z,997.63
2019-05-10T05:19:55.483Z,997.61
2019-05-10T05:21:32.515Z,997.65
2019-05-10T05:22:12.847Z,997.62
2019-05-10T05:24:46.448Z,997.6
2019-05-10T05:25:29.223Z,997.6
2019-05-10T05:26:09.653Z,997.67
2019-05-10T05:26:50.240Z,997.73
2019-05-10T05:27:30.559Z,997.68
2019-05-10T05:28:11.549Z,997.68
2019-05-10T05:28:52.180Z,997.69
2019-05-10T05:29:34.058Z,997.68
2019-05-10T05:30:14.716Z,997.67
2019-05-10T05:31:37.907Z,997.74
2019-05-10T05:35:10.082Z,997.73
2019-05-10T05:35:51.179Z,997.84
2019-05-10T05:36:34.292Z,997.82
2019-05-10T05:37:14.770Z,997.84
2019-05-10T05:37:55.074Z,997.86
2019-05-10T05:38:40.273Z,997.77
2019-05-10T05:39:20.153Z,997.85
2019-05-10T05:40:00.300Z,997.85
2019-05-10T05:40:40.955Z,997.87
2019-05-10T05:42:02.392Z,997.84
2019-05-10T05:42:42.796Z,997.91
2019-05-10T05:43:24.926Z,997.9
2019-05-10T05:44:05.641Z,997.93
2019-05-10T05:44:51.356Z,997.88
2019-05-10T05:45:33.778Z,997.92
2019-05-10T05:46:15.825Z,997.99
2019-05-10T05:46:57.960Z,997.95
2019-05-10T05:47:42.051Z,997.93
2019-05-10T05:48:21.248Z,997.93
2019-05-10T05:48:59.599Z,997.87
2019-05-10T05:49:39.991Z,997.94
2019-05-10T05:50:20.751Z,997.91
2019-05-10T05:51:04.875Z,997.97
2019-05-10T05:51:45.605Z,997.98
2019-05-10T05:52:27.152Z,997.91
2019-05-10T05:53:07.488Z,997.91
2019-05-10T05:53:48.883Z,997.85
2019-05-10T05:54:29.316Z,997.94
2019-05-10T05:55:11.605Z,997.95
2019-05-10T05:55:52.090Z,998
2019-05-10T05:56:32.448Z,998.05
2019-05-10T05:57:12.865Z,998.06
2019-05-10T05:57:53.229Z,998.03
2019-05-10T05:58:37.935Z,997.98
2019-05-10T05:59:17.281Z,998.04
2019-05-10T05:59:57.268Z,998.06
2019-05-10T06:00:44.489Z,998.08
2019-05-10T06:01:25.986Z,998.12
2019-05-10T06:02:07.281Z,998.02
2019-05-10T06:02:44.787Z,998.13
2019-05-10T06:03:27.434Z,998.11
2019-05-10T06:04:10.643Z,998.13
2019-05-10T06:04:47.695Z,998.18
2019-05-10T06:05:34.552Z,998.12
2019-05-10T06:06:21.411Z,998.15
2019-05-10T06:06:58.986Z,998.19
2019-05-10T06:07:37.848Z,998.18
2019-05-10T06:12:01.677Z,998.2
2019-05-10T06:12:44.416Z,998.25
2019-05-10T06:13:30.065Z,998.25
2019-05-10T06:14:10.956Z,998.24
2019-05-10T06:14:52.328Z,998.29
2019-05-10T06:15:31.689Z,998.33
2019-05-10T06:16:14.475Z,998.33
2019-05-10T06:16:53.068Z,998.3
2019-05-10T06:17:33.028Z,998.32
2019-05-10T06:18:18.570Z,998.38
2019-05-10T06:18:59.035Z,998.37
2019-05-10T06:19:42.214Z,998.38
2019-05-10T06:20:23.694Z,998.36
2019-05-10T06:21:04.586Z,998.39
2019-05-10T06:21:46.067Z,998.39
2019-05-10T06:22:26.386Z,998.35
2019-05-10T06:23:08.405Z,998.41
2019-05-10T06:23:51.287Z,998.39
2019-05-10T06:24:34.396Z,998.46
2019-05-10T06:25:13.835Z,998.41
2019-05-10T06:25:55.920Z,998.45
2019-05-10T06:26:39.219Z,998.39
2019-05-10T06:27:21.388Z,998.42
2019-05-10T06:28:04.413Z,998.41
2019-05-10T06:29:04.421Z,998.42
2019-05-10T06:29:26.033Z,998.48
2019-05-10T06:30:06.434Z,998.48
2019-05-10T06:30:48.603Z,998.48
2019-05-10T06:31:29.311Z,998.5
2019-05-10T06:32:10.080Z,998.54
2019-05-10T06:32:59.002Z,998.49
2019-05-10T06:33:33.153Z,998.49
2019-05-10T06:34:15.509Z,998.49
2019-05-10T06:34:56.325Z,998.51
2019-05-10T06:35:39.433Z,998.56
2019-05-10T06:36:20.780Z,998.58
2019-05-10T06:37:45.553Z,998.55
2019-05-10T06:38:25.948Z,998.58
2019-05-10T06:39:09.068Z,998.58
2019-05-10T06:39:50.125Z,998.57
2019-05-10T06:40:39.507Z,998.51
2019-05-10T06:41:16.587Z,998.56
2019-05-10T06:41:55.878Z,998.57
2019-05-10T06:43:16.204Z,998.6
2019-05-10T06:43:56.849Z,998.61
2019-05-10T06:44:37.242Z,998.6
2019-05-10T06:45:20.277Z,998.62
2019-05-10T06:46:01.539Z,998.67
2019-05-10T06:46:44.230Z,998.63
2019-05-10T06:47:25.181Z,998.64
2019-05-10T06:48:05.974Z,998.66
2019-05-10T06:48:47.865Z,998.66
2019-05-10T06:49:28.174Z,998.65
2019-05-10T06:50:10.097Z,998.72
2019-05-10T06:50:50.905Z,998.69
2019-05-10T06:51:31.807Z,998.73
2019-05-10T06:52:16.303Z,998.72
2019-05-10T06:53:00.329Z,998.73
2019-05-10T06:53:41.548Z,998.74
2019-05-10T06:54:20.168Z,998.78
2019-05-10T06:55:00.312Z,998.74
2019-05-10T06:55:41.236Z,998.73
2019-05-10T06:56:21.580Z,998.8
2019-05-10T06:57:02.162Z,998.75
2019-05-10T06:57:43.596Z,998.82
2019-05-10T06:58:30.421Z,998.8
2019-05-10T06:59:13.280Z,998.84
2019-05-10T06:59:46.953Z,998.83
2019-05-10T07:00:27.550Z,998.86
2019-05-10T07:01:08.676Z,998.88
2019-05-10T07:01:51.996Z,998.85
2019-05-10T07:02:32.443Z,998.87
2019-05-10T07:03:10.603Z,998.95
2019-05-10T07:03:55.648Z,998.9
2019-05-10T07:04:40.876Z,998.83
2019-05-10T07:05:24.858Z,998.85
2019-05-10T07:06:05.294Z,998.94
2019-05-10T07:06:46.975Z,998.99
2019-05-10T07:07:43.018Z,998.91
2019-05-10T07:08:15.220Z,999.01
2019-05-10T07:08:51.502Z,999.03
2019-05-10T07:09:28.702Z,999.01
2019-05-10T07:10:18.111Z,999.03
2019-05-10T07:10:50.755Z,999
2019-05-10T07:11:31.153Z,999.04
2019-05-10T07:12:15.125Z,999.06
2019-05-10T07:12:56.828Z,999.04
2019-05-10T07:13:34.113Z,999.09
2019-05-10T07:14:17.312Z,999.05
2019-05-10T07:15:03.072Z,999.01
2019-05-10T07:15:41.890Z,999.1
2019-05-10T07:16:23.725Z,999.15
2019-05-10T07:17:05.837Z,999.13
2019-05-10T07:17:47.397Z,999.09
2019-05-10T07:18:27.701Z,999.14
2019-05-10T07:19:08.479Z,999.21
2019-05-10T07:19:54.745Z,999.21
2019-05-10T07:20:34.660Z,999.15
2019-05-10T07:21:17.173Z,999.27
2019-05-10T07:21:57.659Z,999.26
2019-05-10T07:24:01.860Z,999.28
2019-05-10T07:24:44.135Z,999.3
2019-05-10T07:25:29.202Z,999.19
2019-05-10T07:29:03.030Z,999.29
2019-05-10T07:29:46.145Z,999.33
2019-05-10T07:30:28.637Z,999.33
2019-05-10T07:31:09.058Z,999.33
2019-05-10T07:31:51.559Z,999.33
2019-05-10T07:32:35.798Z,999.33
2019-05-10T07:33:17.051Z,999.4
2019-05-10T07:34:38.952Z,999.35
2019-05-10T07:35:38.775Z,999.31
2019-05-10T07:36:26.966Z,999.36
2019-05-10T07:37:09.809Z,999.52
2019-05-10T07:37:51.717Z,999.47
2019-05-10T07:38:32.872Z,999.56
2019-05-10T07:39:54.355Z,999.41
2019-05-10T07:40:35.154Z,999.53
2019-05-10T07:41:19.300Z,999.54
2019-05-10T07:42:00.238Z,999.48
2019-05-10T07:42:44.888Z,999.52
2019-05-10T07:43:25.997Z,999.53
2019-05-10T07:44:07.629Z,999.59
2019-05-10T07:44:48.757Z,999.58
2019-05-10T07:45:28.183Z,999.58
2019-05-10T07:46:12.146Z,999.6
2019-05-10T07:46:55.196Z,999.57
2019-05-10T07:47:34.920Z,999.58
2019-05-10T07:48:16.639Z,999.6
2019-05-10T07:48:56.049Z,999.6
2019-05-10T07:49:36.683Z,999.59
2019-05-10T07:50:19.599Z,999.63
2019-05-10T07:51:00.110Z,999.64
2019-05-10T07:51:42.809Z,999.64
2019-05-10T07:52:23.847Z,999.64
2019-05-10T07:53:04.237Z,999.65
2019-05-10T07:54:27.873Z,999.72
2019-05-10T07:55:10.458Z,999.67
2019-05-10T07:55:53.211Z,999.7
2019-05-10T07:57:18.457Z,999.76
2019-05-10T07:58:04.895Z,999.73
2019-05-10T07:58:44.693Z,999.73
2019-05-10T07:59:29.037Z,999.74
2019-05-10T08:00:07.410Z,999.71
2019-05-10T08:00:55.851Z,999.69
2019-05-10T08:01:36.860Z,999.72
2019-05-10T08:03:09.739Z,999.75
2019-05-10T08:03:47.987Z,999.77
2019-05-10T08:04:28.715Z,999.77
2019-05-10T08:05:10.679Z,999.79
2019-05-10T08:05:54.949Z,999.8
2019-05-10T08:06:31.821Z,999.78
2019-05-10T08:07:12.263Z,999.82
2019-05-10T08:07:53.306Z,999.82
2019-05-10T08:08:34.229Z,999.82
2019-05-10T08:09:19.192Z,999.82
2019-05-10T08:10:04.770Z,999.85
2019-05-10T08:10:46.034Z,999.85
2019-05-10T08:11:28.522Z,999.89
2019-05-10T08:12:09.812Z,999.87
2019-05-10T08:12:49.339Z,999.86
2019-05-10T08:13:32.466Z,999.86
2019-05-10T08:14:13.415Z,999.9
2019-05-10T08:14:59.007Z,999.9
2019-05-10T08:15:39.037Z,999.89
2019-05-10T08:16:22.822Z,999.93
2019-05-10T08:17:06.047Z,999.94
2019-05-10T08:20:34.792Z,999.98
2019-05-10T08:21:18.618Z,999.97
2019-05-10T08:21:48.661Z,1000.01
2019-05-10T08:22:24.545Z,1000.01
2019-05-10T08:23:08.277Z,1000.01
2019-05-10T08:23:49.097Z,1000.01
2019-05-10T08:24:32.720Z,1000.04
2019-05-10T08:25:15.122Z,1000.04
2019-05-10T08:26:04.418Z,1000.05
2019-05-10T08:26:47.524Z,1000.05
2019-05-10T08:27:32.219Z,1000.05
2019-05-10T08:28:14.478Z,1000.09
2019-05-10T08:30:09.443Z,1000.07
2019-05-10T08:30:33.342Z,1000.1
2019-05-10T08:31:13.867Z,1000.04
2019-05-10T08:31:57.575Z,1000.05
2019-05-10T08:32:38.583Z,1000.11
2019-05-10T08:33:22.734Z,1000.07
2019-05-10T08:34:02.178Z,1000.08
2019-05-10T08:34:51.515Z,1000.07
2019-05-10T08:35:22.129Z,1000.11
2019-05-10T08:36:05.561Z,1000.1
2019-05-10T08:36:47.572Z,1000.13
2019-05-10T08:37:34.193Z,1000.16
2019-05-10T08:38:16.073Z,1000.13
2019-05-10T08:39:07.499Z,1000.15
2019-05-10T08:39:48.916Z,1000.13
2019-05-10T08:40:31.433Z,1000.16
2019-05-10T08:41:13.158Z,1000.19
2019-05-10T08:42:01.178Z,1000.17
2019-05-10T08:42:40.670Z,1000.25
2019-05-10T08:43:16.753Z,1000.19
2019-05-10T08:44:04.434Z,1000.22
2019-05-10T08:44:42.840Z,1000.22
2019-05-10T08:45:25.400Z,1000.24
2019-05-10T08:46:11.945Z,1000.26
2019-05-10T08:46:53.879Z,1000.28
2019-05-10T08:47:34.348Z,1000.25
2019-05-10T08:48:15.519Z,1000.22
2019-05-10T08:49:02.009Z,1000.3
2019-05-10T08:49:45.781Z,1000.23
2019-05-10T08:50:42.410Z,1000.26
2019-05-10T08:51:07.441Z,1000.26
2019-05-10T08:51:49.191Z,1000.25
2019-05-10T08:52:45.107Z,1000.27
2019-05-10T08:53:26.352Z,1000.33
2019-05-10T08:54:07.747Z,1000.26
2019-05-10T08:54:49.338Z,1000.29
2019-05-10T08:55:32.060Z,1000.29
2019-05-10T08:56:13.540Z,1000.36
2019-05-10T08:57:00.810Z,1000.35
2019-05-10T08:58:21.515Z,1000.39
2019-05-10T08:58:57.174Z,1000.39
2019-05-10T08:59:42.816Z,1000.36
2019-05-10T09:00:40.865Z,1000.39
2019-05-10T09:03:00.756Z,1000.44
2019-05-10T09:03:47.020Z,1000.45
2019-05-10T09:04:23.929Z,1000.51
2019-05-10T09:05:05.863Z,1000.44
2019-05-10T09:05:47.443Z,1000.46
2019-05-10T09:06:27.744Z,1000.45
2019-05-10T09:07:11.857Z,1000.45
2019-05-10T09:07:52.047Z,1000.43
2019-05-10T09:08:34.641Z,1000.47
2019-05-10T09:09:12.679Z,1000.47
2019-05-10T09:09:53.792Z,1000.49
2019-05-10T09:10:33.789Z,1000.54
2019-05-10T09:11:16.365Z,1000.55
2019-05-10T09:11:57.659Z,1000.56
2019-05-10T09:12:41.594Z,1000.57
2019-05-10T09:13:19.873Z,1000.56
2019-05-10T09:14:00.092Z,1000.57
2019-05-10T09:14:44.373Z,1000.61
2019-05-10T09:15:25.141Z,1000.62
2019-05-10T09:16:07.364Z,1000.63
2019-05-10T09:17:32.892Z,1000.62
2019-05-10T09:18:13.672Z,1000.66
2019-05-10T09:18:56.643Z,1000.7
2019-05-10T09:19:41.529Z,1000.71
2019-05-10T09:20:21.691Z,1000.66
2019-05-10T09:21:08.424Z,1000.71
2019-05-10T09:21:49.436Z,1000.75
2019-05-10T09:22:32.217Z,1000.75
2019-05-10T09:23:08.483Z,1000.75
2019-05-10T09:23:50.732Z,1000.7
2019-05-10T09:24:28.650Z,1000.74
2019-05-10T09:25:09.406Z,1000.76
2019-05-10T09:25:52.207Z,1000.75
2019-05-10T09:26:34.159Z,1000.8
2019-05-10T09:27:14.937Z,1000.8
2019-05-10T09:27:56.305Z,1000.81
2019-05-10T09:28:38.013Z,1000.77
2019-05-10T09:29:22.378Z,1000.81
2019-05-10T09:30:08.008Z,1000.81
2019-05-10T09:30:56.081Z,1000.82
2019-05-10T09:31:25.600Z,1000.84
2019-05-10T09:32:06.534Z,1000.82
2019-05-10T09:32:47.337Z,1000.85
2019-05-10T09:33:28.310Z,1000.87
2019-05-10T09:34:12.013Z,1000.83
2019-05-10T09:34:54.301Z,1000.84
2019-05-10T09:35:38.771Z,1000.91
2019-05-10T09:36:22.971Z,1000.9
2019-05-10T09:37:07.908Z,1000.88
2019-05-10T09:37:47.585Z,1000.91
2019-05-10T09:38:28.532Z,1000.92
2019-05-10T09:39:15.214Z,1000.94
2019-05-10T09:40:04.015Z,1000.98
2019-05-10T09:40:40.337Z,1001.02
2019-05-10T09:41:15.824Z,1001
2019-05-10T09:41:56.348Z,1000.97
2019-05-10T09:42:39.842Z,1000.98
2019-05-10T09:43:20.736Z,1001.02
2019-05-10T09:43:58.108Z,1000.97
2019-05-10T09:44:39.034Z,1001
2019-05-10T09:45:22.162Z,1001.01
2019-05-10T09:46:02.660Z,1001
2019-05-10T09:46:42.137Z,1001
2019-05-10T09:47:23.939Z,1001.02
2019-05-10T09:48:06.866Z,1001.02
2019-05-10T09:48:47.307Z,1001.03
2019-05-10T09:49:28.285Z,1001.01
2019-05-10T09:50:12.600Z,1001.05
2019-05-10T09:51:33.042Z,1001.07
2019-05-10T09:52:18.107Z,1001.13
2019-05-10T09:52:54.313Z,1001.13
2019-05-10T09:53:38.236Z,1001.16
2019-05-10T09:54:18.222Z,1001.16
2019-05-10T09:54:57.715Z,1001.16
2019-05-10T09:55:38.967Z,1001.17
2019-05-10T09:56:19.560Z,1001.16
2019-05-10T09:57:07.898Z,1001.23
2019-05-10T09:57:47.957Z,1001.17
2019-05-10T09:58:30.200Z,1001.18
2019-05-10T09:59:12.363Z,1001.16
2019-05-10T09:59:57.014Z,1001.18
2019-05-10T10:00:37.889Z,1001.17
2019-05-10T10:01:21.298Z,1001.17
2019-05-10T10:01:58.114Z,1001.18
2019-05-10T10:02:40.458Z,1001.18
2019-05-10T10:03:20.289Z,1001.22
2019-05-10T10:04:02.258Z,1001.17
2019-05-10T10:04:41.304Z,1001.17
2019-05-10T10:05:21.760Z,1001.19
2019-05-10T10:06:07.524Z,1001.16
2019-05-10T10:06:47.955Z,1001.16
2019-05-10T10:07:29.178Z,1001.16
2019-05-10T10:08:08.966Z,1001.15
2019-05-10T10:08:49.175Z,1001.14
2019-05-10T10:09:32.997Z,1001.15
2019-05-10T10:10:59.030Z,1001.14
2019-05-10T10:11:35.351Z,1001.18
2019-05-10T10:12:17.488Z,1001.16
2019-05-10T10:12:58.171Z,1001.14
2019-05-10T10:13:40.707Z,1001.14
2019-05-10T10:14:17.901Z,1001.11
2019-05-10T10:14:57.259Z,1001.16
2019-05-10T10:15:37.732Z,1001.17
2019-05-10T10:16:19.111Z,1001.15
2019-05-10T10:17:03.072Z,1001.15
2019-05-10T10:17:42.434Z,1001.17
2019-05-10T10:18:25.286Z,1001.19
2019-05-10T10:19:03.295Z,1001.2
2019-05-10T10:19:44.364Z,1001.19
2019-05-10T10:20:24.825Z,1001.22
2019-05-10T10:21:10.312Z,1001.17
2019-05-10T10:21:51.266Z,1001.16